Details From CYPR - Prince Rupert
To PATK - Talkeetna
Flight Number -
Tags Generated
Created
Modified
Stats Distance 781 nm / 1,446 km
Max Altitude 0 ft / 0 m
Waypoints 5
Social Downloads 0
Likes 0
Share VATSIM

Download

Looking for another format? Having issues loading an existing format? Contact us
Advertisement - Login to hide

Notes

Generated

Route

CYPR ZUTKU CYT TKA11 PATK

ID Type Via Altitude Latitude Longitude Leg Dist Tot Dist Heading (true) Name
O CYPR APT - 0 ft / 0 m 54.29334˚ -130.45165˚ - 0 nm - -
ZUTKU FIX - 0 ft / 0 m 57.03459˚ -135.38842˚ 234 nm 234 nm 317° / 312° -
CYT NDB - 0 ft / 0 m 60.08617˚ -142.48875˚ 287 nm 522 nm 312° / 306° YAKATAGA NDB
TKA11 FIX - 0 ft / 0 m 62.31661˚ -150.09809˚ 257 nm 779 nm 305° / 298° -
O PATK APT - 0 ft / 0 m 62.32478˚ -150.08901˚ 0 nm 780 nm 27° / 27° TALKEETNA

Altitude Profile

Advertisement - Login to hide

Weather


0- 5 10 15 20 25 30 35+ Temperature / ° C

Clouds and Precipitation
Forecast for 2018-05-21 00:00 UTC. Updated 3 hours ago

Ground ~20,000 ft ~40,000 ft Winds

CYPR

Details ICAO CYPR (YPR)
Name Prince Rupert
Region Canada
Timezone America/Vancouver (UTC-7.0)
Stats Elevation 116 ft / 35 m (AMSL)
Location 54.286114° -130.444717°
Runways 1
Magnetic Variation 18.163° E

METAR

CYPR 210200Z AUTO 15011G18KT 130V190 9SM OVC090 13/07 A2998 RMK SLP156

Decode

TAF

TAF CYPR 210038Z 2101/2113 16012G22KT P6SM SCT020 BKN040 FM210900 14012KT P6SM SCT015 BKN030 TEMPO 2109/2113 6SM -SHRA BR BKN015 RMK FCST BASED ON AUTO OBS. NXT FCST BY 210700Z

Decode

Departure Runways

ID Width Length Bearing (true) Bearing (mag) Surface Threshold Offset Overrun Length
13 200 ft / 61 m 6,043 ft / 1,842 m 150.73° 132.57° Asphalt 0 ft / 0 m 0 ft / 0 m
31 200 ft / 61 m 6,043 ft / 1,842 m 330.74° 312.58° Asphalt 0 ft / 0 m 0 ft / 0 m

PATK

Details ICAO PATK (TKA)
Name TALKEETNA
Region USA (Alaska)
Timezone America/Anchorage (UTC-8.0)
Stats Elevation 358 ft / 109 m (AMSL)
Location 62.320512° -150.093685°
Runways 1
Magnetic Variation 16.200° E

METAR

PATK 210153Z 00000KT 10SM FEW110 14/01 A2949 RMK SLP989 T01390011 VIA AUTODIAL

Decode

TAF

PATK 202341Z 2100/2124 VRB04KT P6SM BKN080 FM210600 VRB04KT P6SM VCSH SCT035 OVC050

Decode

Destination Runways

ID Width Length Bearing (true) Bearing (mag) Surface Threshold Offset Overrun Length
18 75 ft / 23 m 3,503 ft / 1,068 m 207.01° 190.81° Asphalt 0 ft / 0 m 0 ft / 0 m
36 75 ft / 23 m 3,503 ft / 1,068 m 27.01° 10.81° Asphalt 0 ft / 0 m 0 ft / 0 m